Time;durP1;ratioP1;P1;durP2;ratioP2;P2;SDS_P1;SDS_P2;PMS_P1;PMS_P2;Temp;Humidity;BMP_temperature;BMP_pressure;BME280_temperature;BME280_humidity;BME280_pressure;Samples;Min_cycle;Max_cycle;Signal;HPM_P1;HPM_P2
2022/03/08 00:01:46;;;;;;;39.88;22.60;;;;;;;-2.93;62.38;96952.16;5075016;28;20035;-64
2022/03/08 00:04:12;;;;;;;45.05;22.17;;;;;;;-2.92;62.60;96961.00;5063883;28;20040;-62
2022/03/08 00:06:37;;;;;;;42.92;22.45;;;;;;;-2.98;62.79;96954.06;5054455;28;20764;-62
2022/03/08 00:09:03;;;;;;;38.92;20.85;;;;;;;-2.96;62.61;96955.38;5060969;28;20135;-65
2022/03/08 00:11:29;;;;;;;38.22;20.58;;;;;;;-3.02;63.25;96964.53;5049697;28;20045;-63
2022/03/08 00:13:54;;;;;;;42.20;21.75;;;;;;;-3.00;63.03;96964.25;5053746;28;20072;-63
2022/03/08 00:16:19;;;;;;;38.47;21.65;;;;;;;-3.04;62.85;96955.94;5058472;28;20094;-65
2022/03/08 00:18:47;;;;;;;39.20;21.25;;;;;;;-3.09;63.32;96964.78;5057794;28;20041;-63
2022/03/08 00:21:13;;;;;;;42.53;21.85;;;;;;;-3.10;63.40;96957.84;5046908;28;20037;-64
2022/03/08 00:23:39;;;;;;;41.08;20.65;;;;;;;-3.11;63.37;96950.88;5062361;28;20097;-64
2022/03/08 00:26:04;;;;;;;40.85;21.65;;;;;;;-3.14;63.58;96955.97;5046716;28;20416;-65
2022/03/08 00:28:30;;;;;;;39.65;21.52;;;;;;;-3.13;63.33;96950.34;5050507;28;20143;-63
2022/03/08 00:30:56;;;;;;;39.72;22.40;;;;;;;-3.19;63.53;96932.66;5056860;28;20036;-62
2022/03/08 00:33:21;;;;;;;44.60;22.65;;;;;;;-3.21;63.55;96939.38;5056687;28;21000;-64
2022/03/08 00:35:47;;;;;;;40.72;23.50;;;;;;;-3.17;63.57;96938.56;5062126;28;20120;-64
2022/03/08 00:38:13;;;;;;;40.30;22.52;;;;;;;-3.17;63.84;96953.81;5057629;28;20058;-64
2022/03/08 00:40:38;;;;;;;47.05;22.02;;;;;;;-3.25;63.74;96944.47;5046911;28;20102;-63
2022/03/08 00:43:04;;;;;;;42.80;22.83;;;;;;;-3.22;63.68;96951.97;5065257;28;20549;-65
2022/03/08 00:45:29;;;;;;;37.72;21.27;;;;;;;-3.29;63.95;96960.28;5033999;28;20084;-62
2022/03/08 00:47:55;;;;;;;43.10;24.05;;;;;;;-3.24;63.70;96954.13;5041895;28;20528;-64
2022/03/08 00:50:24;;;;;;;40.75;22.88;;;;;;;-3.29;64.05;96954.13;5034926;28;21563;-64
2022/03/08 00:52:51;;;;;;;41.40;23.15;;;;;;;-3.26;63.77;96940.19;5041849;28;20183;-63
2022/03/08 00:55:18;;;;;;;43.00;21.10;;;;;;;-3.20;63.44;96944.47;5040475;28;20037;-64
2022/03/08 00:57:44;;;;;;;40.83;22.10;;;;;;;-3.20;63.68;96952.50;5034380;28;20393;-61
2022/03/08 01:00:13;;;;;;;42.03;20.88;;;;;;;-3.22;64.17;96957.34;5052326;28;20041;-63
2022/03/08 01:02:39;;;;;;;34.97;19.23;;;;;;;-3.23;64.17;96952.25;5052053;28;20074;-63
2022/03/08 01:05:05;;;;;;;40.58;22.83;;;;;;;-3.30;64.04;96947.16;5049076;28;20401;-64
2022/03/08 01:07:32;;;;;;;41.33;21.15;;;;;;;-3.31;64.16;96942.91;5051896;28;20105;-64
2022/03/08 01:09:57;;;;;;;43.30;20.95;;;;;;;-3.31;64.44;96950.94;5052424;28;20389;-64
2022/03/08 01:12:24;;;;;;;41.00;22.60;;;;;;;-3.28;64.41;96939.66;5051964;28;20033;-64
2022/03/08 01:14:49;;;;;;;40.45;21.20;;;;;;;-3.33;64.32;96942.34;5052245;28;20043;-64
2022/03/08 01:17:15;;;;;;;44.17;22.50;;;;;;;-3.31;64.58;96946.38;5051684;28;20029;-64
2022/03/08 01:19:40;;;;;;;43.17;23.65;;;;;;;-3.41;64.93;96946.38;5033913;28;20482;-63
2022/03/08 01:22:06;;;;;;;42.88;23.67;;;;;;;-3.50;65.38;96940.75;5052278;28;20104;-64
2022/03/08 01:24:31;;;;;;;42.70;22.38;;;;;;;-3.54;65.72;96941.59;5051912;28;20043;-62
2022/03/08 01:26:57;;;;;;;39.03;20.25;;;;;;;-3.55;65.67;96945.31;5050272;28;20539;-64
2022/03/08 01:29:23;;;;;;;45.30;24.52;;;;;;;-3.59;66.33;96945.06;5051711;28;20563;-64
2022/03/08 01:31:49;;;;;;;38.88;21.77;;;;;;;-3.61;66.64;96941.84;5051604;28;20108;-63
2022/03/08 01:34:14;;;;;;;40.80;21.90;;;;;;;-3.60;65.77;96938.13;5041025;28;20030;-64
2022/03/08 01:36:41;;;;;;;41.78;21.77;;;;;;;-3.66;66.19;96926.59;5031355;28;20079;-61
2022/03/08 01:39:06;;;;;;;41.30;20.08;;;;;;;-3.69;66.46;96929.81;5013851;28;20030;-64
2022/03/08 01:41:32;;;;;;;42.55;22.17;;;;;;;-3.67;66.10;96927.66;5031769;28;20021;-63
2022/03/08 01:43:57;;;;;;;40.88;22.63;;;;;;;-3.76;66.86;96925.78;5031544;28;20095;-64
2022/03/08 01:46:23;;;;;;;43.42;22.38;;;;;;;-3.76;67.07;96923.94;5031353;28;20466;-63
2022/03/08 01:48:48;;;;;;;42.97;21.27;;;;;;;-3.75;66.90;96919.38;5030758;28;20033;-62
2022/03/08 01:51:15;;;;;;;41.78;21.55;;;;;;;-3.74;66.44;96923.66;5031186;28;20030;-63
2022/03/08 01:53:40;;;;;;;44.72;22.52;;;;;;;-3.78;66.80;96925.25;5031641;28;20429;-63
2022/03/08 01:56:09;;;;;;;41.25;22.45;;;;;;;-3.79;66.99;96924.47;5031310;28;20029;-63
2022/03/08 01:58:36;;;;;;;50.63;22.63;;;;;;;-3.88;67.66;96915.38;5031554;28;20049;-63
2022/03/08 02:01:03;;;;;;;39.78;20.98;;;;;;;-3.86;67.60;96929.28;5031198;28;20481;-62
2022/03/08 02:03:29;;;;;;;47.08;20.10;;;;;;;-3.75;67.43;96924.72;5031508;28;20216;-64
2022/03/08 02:05:55;;;;;;;43.63;23.00;;;;;;;-3.87;67.25;96917.78;5055949;28;20045;-63
2022/03/08 02:08:20;;;;;;;42.67;21.05;;;;;;;-3.91;67.66;96915.91;5077835;28;20484;-63
2022/03/08 02:10:46;;;;;;;39.78;22.88;;;;;;;-3.89;67.12;96909.22;5072648;28;20096;-63
2022/03/08 02:13:11;;;;;;;44.58;23.33;;;;;;;-3.95;68.08;96907.59;5062076;28;20195;-61
2022/03/08 02:15:36;;;;;;;39.60;21.98;;;;;;;-3.94;67.90;96916.44;5049095;28;20095;-62
2022/03/08 02:18:02;;;;;;;45.53;23.75;;;;;;;-3.96;68.25;96918.56;5050670;28;20029;-62
2022/03/08 02:20:28;;;;;;;38.22;21.05;;;;;;;-3.93;67.98;96918.03;5052309;28;20451;-62
2022/03/08 02:22:54;;;;;;;41.90;21.27;;;;;;;-4.00;68.56;96904.13;5062275;28;20025;-63
2022/03/08 02:25:21;;;;;;;40.13;21.80;;;;;;;-4.03;68.70;96908.16;5070628;28;20512;-62
2022/03/08 02:27:50;;;;;;;41.28;22.70;;;;;;;-4.03;68.37;96905.47;5070777;28;20036;-63
2022/03/08 02:30:16;;;;;;;46.37;24.23;;;;;;;-4.09;69.31;96904.69;5070793;28;20032;-63
2022/03/08 02:32:42;;;;;;;40.78;23.00;;;;;;;-4.07;68.37;96902.53;5070888;28;20372;-67
2022/03/08 02:35:12;;;;;;;44.67;23.02;;;;;;;-4.03;68.79;96902.81;5062162;28;20375;-62
2022/03/08 02:37:52;;;;;;;39.05;21.08;;;;;;;-4.04;68.63;96901.97;5062144;28;20021;-63
2022/03/08 02:40:21;;;;;;;43.78;23.02;;;;;;;-4.15;69.24;96892.34;5071190;28;20376;-62
2022/03/08 02:42:47;;;;;;;47.30;22.80;;;;;;;-4.16;68.88;96901.47;5070650;28;20028;-63
2022/03/08 02:45:14;;;;;;;48.30;23.42;;;;;;;-4.22;69.21;96897.97;5071083;28;20032;-60
2022/03/08 02:47:39;;;;;;;45.28;23.10;;;;;;;-4.27;69.70;96902.50;5070519;28;20037;-61
2022/03/08 02:50:07;;;;;;;44.70;23.73;;;;;;;-4.24;69.53;96901.97;5067593;28;20401;-65
2022/03/08 02:52:34;;;;;;;46.13;22.67;;;;;;;-4.29;69.80;96915.34;5057647;28;20435;-64
2022/03/08 02:54:59;;;;;;;43.00;23.38;;;;;;;-4.32;70.01;96910.50;5050845;28;20108;-61
2022/03/08 02:57:25;;;;;;;45.45;22.08;;;;;;;-4.36;69.95;96904.09;5035502;28;20460;-63
2022/03/08 02:59:50;;;;;;;45.60;24.08;;;;;;;-4.29;69.67;96910.00;5062536;28;20040;-63
2022/03/08 03:02:16;;;;;;;44.50;22.52;;;;;;;-4.35;69.63;96903.03;5060958;28;20033;-61
2022/03/08 03:04:42;;;;;;;47.58;24.75;;;;;;;-4.33;69.67;96907.03;5054216;28;20049;-63
2022/03/08 03:07:07;;;;;;;48.22;24.00;;;;;;;-4.36;69.81;96912.13;5062196;28;20066;-59
2022/03/08 03:09:33;;;;;;;42.10;21.98;;;;;;;-4.43;70.33;96920.38;5054747;28;20033;-63
2022/03/08 03:11:58;;;;;;;42.70;22.55;;;;;;;-4.47;70.18;96916.66;5051594;28;20059;-63
2022/03/08 03:14:23;;;;;;;41.85;22.75;;;;;;;-4.51;70.80;96911.03;5065954;28;20078;-63
2022/03/08 03:16:49;;;;;;;42.65;22.55;;;;;;;-4.50;70.78;96917.16;5074145;28;20119;-62
2022/03/08 03:19:14;;;;;;;39.13;21.17;;;;;;;-4.48;70.56;96901.69;5066197;28;20061;-63
2022/03/08 03:21:39;;;;;;;44.80;22.65;;;;;;;-4.50;70.91;96914.50;5060818;28;20094;-61
2022/03/08 03:24:05;;;;;;;43.95;22.60;;;;;;;-4.52;70.99;96913.97;5071180;28;20036;-63
2022/03/08 03:26:31;;;;;;;40.00;21.65;;;;;;;-4.53;70.61;96909.69;5073613;28;20573;-61
2022/03/08 03:28:56;;;;;;;44.83;22.17;;;;;;;-4.54;70.76;96900.06;5073922;28;20051;-63
2022/03/08 03:31:22;;;;;;;41.65;22.08;;;;;;;-4.54;71.01;96906.19;5085619;28;20088;-63
2022/03/08 03:33:47;;;;;;;46.25;22.20;;;;;;;-4.61;71.41;96905.66;5074969;28;20071;-63
2022/03/08 03:36:13;;;;;;;46.55;22.95;;;;;;;-4.64;71.31;96898.97;5068883;28;20036;-61
2022/03/08 03:38:38;;;;;;;42.47;22.38;;;;;;;-4.63;71.44;96895.25;5067652;28;20032;-60
2022/03/08 03:41:04;;;;;;;44.60;22.75;;;;;;;-4.67;71.67;96898.69;5073768;28;20603;-63
2022/03/08 03:43:29;;;;;;;37.42;21.23;;;;;;;-4.68;71.85;96907.78;5070277;28;20576;-64
2022/03/08 03:45:54;;;;;;;50.10;22.50;;;;;;;-4.75;72.06;96907.22;5078911;28;20037;-64
2022/03/08 03:48:20;;;;;;;48.90;23.35;;;;;;;-4.74;71.65;96911.50;5056300;28;20028;-64
2022/03/08 03:50:45;;;;;;;47.05;22.33;;;;;;;-4.76;72.20;96918.97;5053489;28;20029;-64
2022/03/08 03:53:11;;;;;;;45.67;22.23;;;;;;;-4.80;72.15;96913.34;5065011;28;20027;-64
2022/03/08 03:55:37;;;;;;;44.20;23.05;;;;;;;-4.72;71.92;96910.16;5071174;28;20103;-62
2022/03/08 03:58:03;;;;;;;45.40;23.45;;;;;;;-4.80;71.81;96910.69;5061923;28;20473;-63
2022/03/08 04:00:28;;;;;;;41.47;20.90;;;;;;;-4.79;72.65;96906.94;5073367;28;20028;-63
2022/03/08 04:02:54;;;;;;;43.33;23.15;;;;;;;-4.77;72.05;96910.19;5072968;28;20078;-63
2022/03/08 04:05:19;;;;;;;45.90;22.05;;;;;;;-4.79;72.50;96904.25;5063042;28;20163;-64
2022/03/08 04:07:45;;;;;;;42.28;22.25;;;;;;;-4.82;72.47;96904.81;5067946;28;20631;-63
2022/03/08 04:10:14;;;;;;;46.10;22.38;;;;;;;-4.83;72.64;96903.19;5073362;28;20032;-63
2022/03/08 04:12:41;;;;;;;47.50;22.65;;;;;;;-4.75;72.31;96896.53;5057393;28;20056;-64
2022/03/08 04:15:07;;;;;;;48.00;22.88;;;;;;;-4.81;73.13;96903.72;5053098;28;20520;-64
2022/03/08 04:17:33;;;;;;;44.92;23.65;;;;;;;-4.80;72.78;96900.78;5040664;28;20037;-64
2022/03/08 04:19:58;;;;;;;51.72;23.70;;;;;;;-4.86;72.86;96898.38;5074111;28;20094;-64
2022/03/08 04:22:23;;;;;;;56.00;24.40;;;;;;;-4.82;72.88;96905.59;5069297;28;20028;-64
2022/03/08 04:24:49;;;;;;;49.97;23.92;;;;;;;-4.87;73.32;96892.22;5075149;28;20036;-63
2022/03/08 04:27:14;;;;;;;45.20;23.65;;;;;;;-4.89;73.13;96894.34;5073828;28;20051;-64
2022/03/08 04:29:40;;;;;;;49.33;23.25;;;;;;;-4.91;73.15;96901.03;5074214;28;20028;-63
2022/03/08 04:32:05;;;;;;;46.95;23.27;;;;;;;-4.92;73.23;96894.06;5072956;28;20081;-62
2022/03/08 04:34:31;;;;;;;47.78;23.38;;;;;;;-4.91;73.25;96887.69;5064817;28;20024;-61
2022/03/08 04:36:56;;;;;;;50.03;22.98;;;;;;;-4.99;73.89;96891.63;5055424;28;20048;-64
2022/03/08 04:39:22;;;;;;;51.08;24.17;;;;;;;-4.98;74.19;96885.25;5064247;28;20031;-63
2022/03/08 04:41:47;;;;;;;49.85;24.23;;;;;;;-4.98;74.05;96892.47;5072271;28;20484;-63
2022/03/08 04:44:13;;;;;;;45.53;22.05;;;;;;;-4.95;73.87;96878.56;5072423;28;20055;-64
2022/03/08 04:46:39;;;;;;;47.75;23.33;;;;;;;-5.04;74.72;96881.75;5071156;28;20595;-63
2022/03/08 04:49:05;;;;;;;51.13;25.90;;;;;;;-4.98;74.24;96876.44;5062300;28;20178;-64
2022/03/08 04:51:30;;;;;;;47.25;24.85;;;;;;;-5.01;74.64;96885.75;5063886;28;20515;-63
2022/03/08 04:53:55;;;;;;;48.67;23.65;;;;;;;-5.07;74.88;96892.97;5072253;28;20035;-63
2022/03/08 04:56:21;;;;;;;46.88;24.08;;;;;;;-5.05;74.70;96884.69;5085524;28;20025;-64
2022/03/08 04:58:46;;;;;;;47.42;23.90;;;;;;;-5.02;74.72;96894.84;5079269;28;20024;-64
2022/03/08 05:01:13;;;;;;;47.88;24.20;;;;;;;-5.02;74.35;96892.19;5075887;28;20098;-61
2022/03/08 05:03:38;;;;;;;54.38;24.55;;;;;;;-5.01;74.74;96883.88;5031109;28;20441;-65
2022/03/08 05:06:05;;;;;;;48.10;23.92;;;;;;;-5.02;74.66;96887.63;5042607;28;20120;-64
2022/03/08 05:08:32;;;;;;;47.75;23.80;;;;;;;-5.07;75.04;96897.50;5066487;28;20076;-64
2022/03/08 05:10:58;;;;;;;51.25;24.00;;;;;;;-5.09;75.00;96894.28;5059486;28;20052;-63
2022/03/08 05:13:24;;;;;;;43.00;23.13;;;;;;;-5.09;75.03;96892.41;5052090;28;20041;-63
2022/03/08 05:15:49;;;;;;;51.67;25.25;;;;;;;-5.06;74.93;96899.09;5033513;28;20132;-64
2022/03/08 05:18:16;;;;;;;46.22;23.00;;;;;;;-5.10;75.20;96898.81;5052006;28;20036;-64
2022/03/08 05:20:42;;;;;;;47.08;22.92;;;;;;;-5.10;75.21;96904.16;5051832;28;20037;-63
2022/03/08 05:23:07;;;;;;;46.03;23.38;;;;;;;-5.09;75.55;96899.63;5051657;28;20029;-63
2022/03/08 05:25:33;;;;;;;47.28;23.35;;;;;;;-5.10;75.62;96898.81;5050426;28;20040;-64
2022/03/08 05:27:58;;;;;;;63.78;29.88;;;;;;;-5.13;75.27;96904.69;5066352;28;20039;-64
2022/03/08 05:30:23;;;;;;;53.60;26.17;;;;;;;-5.12;75.36;96903.63;5063436;28;20056;-63
2022/03/08 05:32:49;;;;;;;54.40;25.65;;;;;;;-5.12;75.42;96908.16;5071508;28;20029;-63
2022/03/08 05:35:14;;;;;;;46.83;23.67;;;;;;;-5.06;75.21;96907.09;5074892;28;20151;-64
2022/03/08 05:37:40;;;;;;;47.97;23.55;;;;;;;-5.06;75.33;96909.78;5082211;28;20110;-62
2022/03/08 05:40:06;;;;;;;48.70;22.90;;;;;;;-5.01;75.21;96921.28;5070433;28;20028;-61
2022/03/08 05:42:32;;;;;;;51.40;24.55;;;;;;;-5.00;75.13;96917.56;5058557;28;20040;-63
2022/03/08 05:44:57;;;;;;;51.47;25.83;;;;;;;-4.90;74.74;96921.34;5067795;28;20028;-63
2022/03/08 05:47:23;;;;;;;47.00;23.77;;;;;;;-5.00;74.80;96920.22;5070862;28;20086;-63
2022/03/08 05:49:48;;;;;;;51.22;24.92;;;;;;;-4.87;74.62;96924.28;5071288;28;20028;-63
2022/03/08 05:52:14;;;;;;;55.65;25.55;;;;;;;-4.98;75.21;96929.88;5071118;28;20031;-62
2022/03/08 05:54:39;;;;;;;43.65;24.02;;;;;;;-4.98;75.57;96925.31;5071580;28;20089;-61
2022/03/08 05:57:05;;;;;;;60.58;29.45;;;;;;;-4.94;75.30;96928.28;5051270;28;20492;-63
2022/03/08 05:59:30;;;;;;;52.92;28.38;;;;;;;-5.01;75.47;96925.84;5062851;28;20490;-62
2022/03/08 06:01:55;;;;;;;49.17;26.85;;;;;;;-5.02;75.52;96930.38;5061841;28;20039;-63
2022/03/08 06:04:21;;;;;;;55.60;27.65;;;;;;;-5.01;75.53;96931.16;5062451;28;20029;-62
2022/03/08 06:06:46;;;;;;;56.20;28.60;;;;;;;-5.07;75.74;96933.03;5070988;28;20020;-62
2022/03/08 06:09:12;;;;;;;49.65;25.88;;;;;;;-5.08;76.14;96923.38;5071140;28;20799;-60
2022/03/08 06:11:37;;;;;;;47.25;24.30;;;;;;;-5.02;75.70;96930.38;5061032;28;20142;-63
2022/03/08 06:14:02;;;;;;;57.80;26.10;;;;;;;-5.05;76.03;96924.75;5064128;28;20103;-63
2022/03/08 06:16:28;;;;;;;49.35;25.33;;;;;;;-5.06;76.13;96917.78;5073650;28;20072;-63
2022/03/08 06:18:56;;;;;;;48.78;26.38;;;;;;;-5.09;76.06;96919.13;5053555;28;20037;-65
2022/03/08 06:21:22;;;;;;;50.42;26.38;;;;;;;-4.95;75.45;96913.28;5075933;28;20024;-65
2022/03/08 06:23:48;;;;;;;48.10;25.33;;;;;;;-4.94;75.78;96910.38;5057827;28;20032;-65
2022/03/08 06:26:13;;;;;;;54.25;26.10;;;;;;;-4.80;74.91;96919.50;5060495;28;20029;-65
2022/03/08 06:28:38;;;;;;;52.40;27.13;;;;;;;-4.70;74.34;96925.94;5070592;28;20047;-63
2022/03/08 06:31:04;;;;;;;63.55;29.58;;;;;;;-4.76;74.39;96921.66;5070519;28;20037;-65
2022/03/08 06:33:29;;;;;;;53.13;26.05;;;;;;;-4.75;74.90;96913.38;5070459;28;20028;-65
2022/03/08 06:35:54;;;;;;;52.42;28.33;;;;;;;-4.62;74.18;96920.09;5054311;28;20060;-64
2022/03/08 06:38:20;;;;;;;50.83;27.42;;;;;;;-4.45;73.25;96914.50;5070527;28;20036;-64
2022/03/08 06:40:45;;;;;;;53.15;25.45;;;;;;;-4.28;73.06;96912.41;5066287;28;20032;-64
2022/03/08 06:43:11;;;;;;;52.85;26.73;;;;;;;-4.00;71.09;96912.94;5073315;28;20028;-64
2022/03/08 06:45:36;;;;;;;49.35;25.15;;;;;;;-3.86;70.90;96919.38;5074627;28;20108;-63
2022/03/08 06:48:02;;;;;;;48.20;25.50;;;;;;;-3.80;70.79;96914.03;5075907;28;20025;-64
2022/03/08 06:50:27;;;;;;;43.45;24.35;;;;;;;-3.76;69.83;96901.69;5076152;28;20076;-64
2022/03/08 06:52:53;;;;;;;48.80;23.80;;;;;;;-3.75;70.82;96919.38;5065968;28;20491;-64
2022/03/08 06:55:18;;;;;;;48.35;25.45;;;;;;;-3.49;69.29;96926.31;5066225;28;20055;-65
2022/03/08 06:57:43;;;;;;;52.03;26.42;;;;;;;-3.25;68.44;96931.09;5055696;28;20075;-65
2022/03/08 07:00:11;;;;;;;44.45;25.08;;;;;;;-3.18;67.37;96934.28;5055844;28;20071;-65
2022/03/08 07:02:36;;;;;;;52.33;23.98;;;;;;;-2.74;66.41;96941.66;5056005;28;20033;-63
2022/03/08 07:05:03;;;;;;;47.80;24.83;;;;;;;-2.71;65.02;96945.66;5059774;28;20032;-62
2022/03/08 07:07:29;;;;;;;45.15;23.15;;;;;;;-2.73;66.40;96962.00;5061603;28;20052;-63
2022/03/08 07:09:55;;;;;;;42.75;23.15;;;;;;;-2.44;64.91;96958.66;5053062;28;20057;-61
2022/03/08 07:12:20;;;;;;;42.00;21.33;;;;;;;-2.43;64.75;96960.28;5056602;28;20032;-63
2022/03/08 07:14:46;;;;;;;44.28;23.63;;;;;;;-2.24;63.77;96954.25;5065848;28;20070;-63
2022/03/08 07:17:11;;;;;;;45.78;23.38;;;;;;;-2.78;65.97;96969.25;5073780;28;20107;-64
2022/03/08 07:19:37;;;;;;;41.83;23.38;;;;;;;-2.82;66.11;96960.97;5070778;28;20028;-63
2022/03/08 07:22:02;;;;;;;47.88;23.65;;;;;;;-2.39;65.38;96965.88;5064623;28;20040;-64
2022/03/08 07:24:28;;;;;;;43.03;23.20;;;;;;;-2.56;64.76;96955.50;5053306;28;20037;-64
2022/03/08 07:26:53;;;;;;;44.30;24.55;;;;;;;-2.23;64.32;96962.03;5061043;28;20441;-64
2022/03/08 07:29:19;;;;;;;46.72;24.60;;;;;;;-2.55;64.63;96957.91;5072470;28;20101;-62
2022/03/08 07:31:44;;;;;;;50.50;24.13;;;;;;;-2.11;64.19;96956.31;5064624;28;20059;-64
2022/03/08 07:34:09;;;;;;;45.95;24.02;;;;;;;-1.84;62.74;96963.91;5065347;28;20029;-63
2022/03/08 07:36:37;;;;;;;48.60;24.83;;;;;;;-2.00;63.32;96963.25;5063374;28;20028;-63
2022/03/08 07:39:03;;;;;;;41.05;21.23;;;;;;;-1.12;61.11;96970.56;5074530;28;20024;-65
2022/03/08 07:41:28;;;;;;;56.03;25.70;;;;;;;-2.01;63.41;96968.88;5078161;28;20035;-65
2022/03/08 07:43:54;;;;;;;49.75;25.42;;;;;;;-1.77;63.11;96975.13;5073410;28;20040;-63
2022/03/08 07:46:19;;;;;;;55.97;30.77;;;;;;;-1.99;63.43;96964.81;5067892;28;20048;-63
2022/03/08 07:48:44;;;;;;;51.15;28.00;;;;;;;-1.37;62.20;96973.22;5063730;28;20020;-64
2022/03/08 07:51:10;;;;;;;44.65;22.27;;;;;;;-0.58;58.97;96972.13;5073661;28;20078;-65
2022/03/08 07:53:36;;;;;;;50.88;27.15;;;;;;;-0.85;59.97;96976.19;5073197;28;20029;-64
2022/03/08 07:56:01;;;;;;;46.92;24.42;;;;;;;-1.09;60.53;96984.25;5073527;28;20044;-63
2022/03/08 07:58:27;;;;;;;43.97;23.40;;;;;;;-0.68;58.82;96991.09;5073380;28;20099;-64
2022/03/08 08:00:53;;;;;;;48.58;23.90;;;;;;;-0.04;56.44;96995.13;5064862;28;20055;-64
2022/03/08 08:03:18;;;;;;;40.30;22.25;;;;;;;1.43;53.29;96997.53;5064017;28;20043;-63
2022/03/08 08:05:44;;;;;;;43.95;23.80;;;;;;;1.23;54.17;96993.34;5072725;28;20071;-65
2022/03/08 08:08:09;;;;;;;40.30;21.27;;;;;;;0.80;53.84;96992.75;5062998;28;20388;-65
2022/03/08 08:10:35;;;;;;;36.03;22.55;;;;;;;0.95;54.10;96995.19;5053476;28;20393;-64
2022/03/08 08:13:01;;;;;;;43.88;22.30;;;;;;;1.20;52.59;97007.41;5051251;28;20059;-65
2022/03/08 08:15:26;;;;;;;43.92;24.85;;;;;;;-0.31;55.68;97009.19;5066421;28;20108;-64
2022/03/08 08:17:52;;;;;;;39.75;23.63;;;;;;;0.99;54.25;97007.00;5068498;28;20052;-66
2022/03/08 08:20:17;;;;;;;39.72;21.55;;;;;;;3.16;48.06;97014.72;5065558;28;20055;-65
2022/03/08 08:22:44;;;;;;;36.80;21.27;;;;;;;4.57;44.66;97010.16;5067082;28;20029;-65
2022/03/08 08:25:10;;;;;;;37.60;21.13;;;;;;;2.32;47.49;97022.41;5076231;28;20261;-65
2022/03/08 08:27:37;;;;;;;43.70;24.65;;;;;;;0.66;52.64;97020.47;5074115;28;20051;-66
2022/03/08 08:30:04;;;;;;;44.47;23.70;;;;;;;0.63;54.42;97023.78;5064603;28;20603;-64
2022/03/08 08:32:29;;;;;;;40.75;22.58;;;;;;;0.69;54.05;97019.88;5045743;28;20128;-66
2022/03/08 08:34:55;;;;;;;47.78;23.73;;;;;;;0.88;54.12;97014.47;5035770;28;20200;-66
2022/03/08 08:37:20;;;;;;;44.13;25.45;;;;;;;0.65;54.20;97009.97;5034972;28;20041;-67
2022/03/08 08:39:46;;;;;;;42.88;24.52;;;;;;;0.69;55.11;97011.00;5053764;28;20036;-65
2022/03/08 08:42:11;;;;;;;44.25;23.60;;;;;;;0.95;53.37;97017.56;5045791;28;20418;-66
2022/03/08 08:44:37;;;;;;;43.53;23.38;;;;;;;1.12;53.37;97002.72;5050634;28;20359;-66
2022/03/08 08:47:03;;;;;;;45.58;22.80;;;;;;;0.49;54.51;97009.44;5056805;28;20056;-69
2022/03/08 08:49:29;;;;;;;39.95;21.95;;;;;;;1.30;52.84;97001.84;5054592;28;20044;-67
2022/03/08 08:51:55;;;;;;;40.20;21.95;;;;;;;1.32;52.63;96994.22;5053827;28;20044;-66
2022/03/08 08:54:22;;;;;;;40.97;23.95;;;;;;;0.91;53.52;96992.28;5049092;28;20796;-66
2022/03/08 08:56:47;;;;;;;41.65;22.38;;;;;;;1.50;52.00;96984.44;5048430;28;20051;-68
2022/03/08 08:59:13;;;;;;;44.55;23.58;;;;;;;0.98;53.57;96977.63;5046864;28;20041;-68
2022/03/08 09:01:39;;;;;;;60.80;30.25;;;;;;;2.72;50.63;96976.59;5060678;28;20451;-66
2022/03/08 09:04:04;;;;;;;43.50;24.13;;;;;;;3.56;46.01;96976.81;5053859;28;20048;-70
2022/03/08 09:06:30;;;;;;;40.25;21.98;;;;;;;3.05;46.62;96968.19;5053172;28;20365;-65
2022/03/08 09:08:58;;;;;;;36.92;22.27;;;;;;;2.76;48.47;96974.88;5050045;28;20048;-68
2022/03/08 09:11:25;;;;;;;40.40;22.08;;;;;;;2.60;48.35;96981.78;5037187;28;20052;-66
2022/03/08 09:13:50;;;;;;;43.97;24.48;;;;;;;2.77;48.85;96978.38;5038929;28;20046;-67
2022/03/08 09:16:16;;;;;;;40.03;22.52;;;;;;;3.52;47.67;96978.56;5049385;28;20044;-66
2022/03/08 09:18:43;;;;;;;40.97;23.00;;;;;;;2.60;48.35;96985.25;5054884;28;20052;-66
2022/03/08 09:21:10;;;;;;;39.90;22.33;;;;;;;2.60;48.45;96990.69;5032913;28;20446;-66
2022/03/08 09:23:36;;;;;;;40.75;22.20;;;;;;;3.45;46.90;96987.94;5051560;28;20052;-65
2022/03/08 09:26:01;;;;;;;39.97;22.08;;;;;;;3.88;45.38;96983.75;5052676;28;20048;-65
2022/03/08 09:28:27;;;;;;;37.80;21.65;;;;;;;5.85;42.46;96979.72;5048932;28;20048;-66
2022/03/08 09:30:52;;;;;;;40.65;22.00;;;;;;;4.17;44.19;96982.38;5028124;28;20045;-66
2022/03/08 09:33:18;;;;;;;38.38;21.80;;;;;;;3.27;45.39;96988.97;5054116;28;20044;-65
2022/03/08 09:35:43;;;;;;;39.25;23.33;;;;;;;1.37;50.31;96981.72;5047255;28;20041;-66
2022/03/08 09:38:11;;;;;;;39.90;23.65;;;;;;;1.91;51.99;96985.50;5037840;28;20044;-68
2022/03/08 09:40:38;;;;;;;43.53;22.73;;;;;;;2.43;48.61;96977.03;5045660;28;20060;-68
2022/03/08 09:43:04;;;;;;;40.78;21.45;;;;;;;4.43;45.39;96968.81;5052683;22;20100;-68
2022/03/08 09:45:29;;;;;;;36.13;20.70;;;;;;;5.42;42.55;96967.97;5044896;28;20439;-68
2022/03/08 09:47:55;;;;;;;40.92;22.35;;;;;;;7.35;37.92;96962.59;5046009;28;20048;-69
2022/03/08 09:50:20;;;;;;;41.67;21.88;;;;;;;6.91;38.17;96969.63;5040423;28;20036;-69
2022/03/08 09:52:46;;;;;;;37.05;21.55;;;;;;;7.42;37.22;96962.03;5043911;28;20037;-67
2022/03/08 09:55:14;;;;;;;32.30;20.38;;;;;;;8.39;35.29;96954.06;5036809;28;20164;-69
2022/03/08 09:57:44;;;;;;;36.83;22.27;;;;;;;6.16;39.21;96954.94;5044553;28;20045;-67
2022/03/08 10:00:11;;;;;;;39.20;22.80;;;;;;;6.15;39.53;96957.97;5024379;28;20074;-67
2022/03/08 10:02:58;;;;;;;37.28;22.25;;;;;;;5.79;41.58;96949.22;5006215;28;20064;-69
2022/03/08 10:05:27;;;;;;;37.10;21.35;;;;;;;5.70;41.45;96949.25;5029247;28;20204;-68
2022/03/08 10:08:10;;;;;;;38.22;21.13;;;;;;;7.13;37.73;96954.81;5041127;28;20440;-68
2022/03/08 10:10:44;;;;;;;37.28;21.27;;;;;;;5.98;39.18;96956.16;5035057;28;20488;-68
2022/03/08 10:13:11;;;;;;;37.63;21.02;;;;;;;5.61;40.23;96958.59;5038091;28;20045;-68
2022/03/08 10:15:37;;;;;;;40.67;21.48;;;;;;;4.66;42.96;96955.84;5041887;28;20044;-70
2022/03/08 10:18:03;;;;;;;37.83;21.50;;;;;;;3.78;45.14;96957.78;5041346;28;20044;-72
2022/03/08 10:20:31;;;;;;;39.28;22.92;;;;;;;3.81;45.22;96957.13;5042597;28;20128;-69
2022/03/08 10:22:58;;;;;;;40.25;22.15;;;;;;;4.24;45.40;96954.78;5046889;28;20049;-66
2022/03/08 10:25:25;;;;;;;36.92;21.95;;;;;;;6.08;40.48;96945.69;5047276;28;20575;-67
2022/03/08 10:27:54;;;;;;;36.15;21.17;;;;;;;7.22;37.90;96947.34;5027034;28;20515;-70
2022/03/08 10:30:23;;;;;;;36.10;21.58;;;;;;;5.25;43.95;96947.09;5040043;28;20051;-66
2022/03/08 10:32:54;;;;;;;36.45;20.70;;;;;;;5.20;42.93;96947.25;5043941;28;20044;-68
2022/03/08 10:35:24;;;;;;;36.80;22.20;;;;;;;4.73;42.50;96947.22;5042902;28;20064;-69
2022/03/08 10:37:51;;;;;;;45.38;24.40;;;;;;;5.20;46.19;96944.53;5045458;28;20053;-64
2022/03/08 10:40:32;;;;;;;37.38;21.27;;;;;;;6.64;40.45;96939.94;5041495;28;20135;-68
2022/03/08 10:43:00;;;;;;;37.78;21.42;;;;;;;7.01;38.28;96939.25;5048637;28;20045;-66
2022/03/08 10:45:28;;;;;;;39.20;23.02;;;;;;;6.99;42.23;96941.53;5043074;28;20041;-65
2022/03/08 10:47:53;;;;;;;38.40;22.90;;;;;;;8.30;40.49;96931.56;5045474;28;20377;-67
2022/03/08 10:50:28;;;;;;;29.83;17.02;;;;;;;6.13;42.49;96937.34;5046546;28;20041;-69
2022/03/08 10:52:55;;;;;;;37.65;21.45;;;;;;;7.12;41.45;96934.97;5024522;28;20101;-66
2022/03/08 10:55:31;;;;;;;40.53;23.23;;;;;;;6.57;42.47;96942.44;5025546;28;20048;-69
2022/03/08 10:58:04;;;;;;;42.45;21.67;;;;;;;6.84;42.53;96937.50;5054734;28;20051;-66
2022/03/08 11:00:40;;;;;;;44.75;24.38;;;;;;;6.87;42.62;96936.84;5033293;28;20045;-66
2022/03/08 11:03:14;;;;;;;40.30;22.95;;;;;;;6.43;43.28;96926.38;5035050;28;20152;-65
2022/03/08 11:05:46;;;;;;;40.60;23.25;;;;;;;6.48;44.04;96937.06;5052588;28;20033;-65
2022/03/08 11:08:12;;;;;;;40.83;23.48;;;;;;;6.31;44.16;96934.47;5052075;28;20041;-66
2022/03/08 11:10:39;;;;;;;40.95;23.67;;;;;;;6.09;43.83;96930.19;5050561;28;20041;-64
2022/03/08 11:13:06;;;;;;;40.20;23.55;;;;;;;6.24;44.18;96932.28;5037483;28;20037;-66
2022/03/08 11:15:34;;;;;;;41.33;23.83;;;;;;;5.81;45.41;96919.00;5041597;28;20047;-65